Homestead, FL

2:30 PM EDT on August 02, 2015 (GMT -0400)
Dade County-Homestead Regional | | Change Station
CLOSE
Current Station
Airport
Location: Homestead AFB,
Elevation: 7 ft
Nearby Weather Stations

Elev 7 ft 25.49 °N, 80.38 °W | Updated 32 minutes ago

Mostly Cloudy
Mostly Cloudy
90 °F
Feels Like 101 °F
N
10
Wind Variable Wind from South

Today
High -- | Low -- °F
--% Chance of Precip.
Yesterday
High -- | Low -- °F
Precip. -- in
6:48 AM 8:06 PM
Waning Gibbous, 92% visible
Pressure 29.98 in
Visibility 10.0 miles
Clouds Few 13000 ft
Mostly Cloudy 20000 ft
Heat Index 101 °F
Dew Point 76 °F
Humidity 64%
Rainfall 0.00 in
Snow Depth Not available.
UV 8 out of 12
Pollen 3.00 out of 12
Air Quality Not available.
Flu Activity Not available.
METAR KHST 021758Z AUTO 17009KT 10SM FEW130 BKN200 32/24 A2997 RMK AO2 CIG 140 RWY23 SLP152 T03200244 10326 20278 58005

More Conditions Fewer Conditions

Pressure 29.98 in
Visibility 10.0 miles
Clouds Few 13000 ft
Mostly Cloudy 20000 ft
Heat Index 101 °F
Dew Point 76 °F
Humidity 64%
Rainfall 0.00 in
Snow Depth Not available.
UV 8 out of 12
Pollen 3.00 out of 12
Air Quality Not available.
Flu Activity Not available.
METAR KHST 021758Z AUTO 17009KT 10SM FEW130 BKN200 32/24 A2997 RMK AO2 CIG 140 RWY23 SLP152 T03200244 10326 20278 58005

More Conditions Fewer Conditions

Nowcast | as of 2:23 PM EDT on August 2, 2015

Through 5 PM, showers and thunderstorms will move north and be most concentrated over inland sections of Miami-Dade, Broward and Palm Beach counties, as well as over southwest Florida from the Immokalee area across Hendry County to eastern Glades County and Lake Okeechobee. Gusty winds to 40 mph, occasional lightning and very heavy rain will accompany the stronger showers and storms. Although the bulk of the rainfall will be inland, a few showers or thunderstorms will affect Metro Southeast Florida primarily in Broward and Palm Beach counties. Elsewhere, including most of coastal sections of Miami-Dade and Collier counties, mostly dry conditions will prevail.

×

10-Day Weather Forecast

×

Almanac

Astronomy

Aug. 02, 2015 Rise Set
Actual Time
Civil Twilight
Nautical Twilight
Astronomical Twilight
Moon
Length of Visible Light
Length of Day
Tomorrow will be .
, % of the Moon is Illuminated

Today's Extremes

State Highs State Lows

Community

WunderPhotos

Upload Photos

1,843,335 photos uploaded!

WunderBlogs® & News

Nearby

Air Quality

  Air Quality AQ Index Pollutant
Not available.

Snow Depth

Station Depth Elevation

Earthquake Activity

City Distance Mag. Time & Date
Minimum magnitude displayed is 2.5.

Coastal Water Temperatures

Place Temperature

Stations

Nearby Weather Stations

Station Location Temp. Windchill Dew Point Humidity Wind Precip. Elev Updated Type